Terminal Aerodrome Forecast
Issued by NWS Cleveland, OH

Home | Current Version | Previous Version | Text Only | Print | Product List | Glossary On
Versions: 1 2 3 4 5 6 7 8 9 10 11 12 13 14 15 16 17 18 19 20 21 22 23 24 25 26 27
077
FTUS41 KCLE 031731 CCA
TAFERI
TAF COR
KERI 031731Z 0318/0418 33006KT P6SM SCT018 OVC050
      TEMPO 0318/0320 BKN018
     FM040000 28006KT P6SM BKN100
     FM040600 18010KT P6SM SCT100=

USA.gov is the U.S. government's official web portal to all federal, state and local government web resources and services.